createdAt,value
2022-10-10T00:00:12.625Z,22.38
2022-10-10T00:02:39.208Z,22.39
2022-10-10T00:05:05.985Z,22.39
2022-10-10T00:07:32.505Z,22.36
2022-10-10T00:09:59.053Z,22.37
2022-10-10T00:14:42.980Z,22.39
2022-10-10T00:17:09.751Z,22.36
2022-10-10T00:19:36.276Z,22.36
2022-10-10T00:22:02.884Z,22.36
2022-10-10T00:24:29.463Z,22.35
2022-10-10T00:26:56.014Z,22.34
2022-10-10T00:29:22.568Z,22.35
2022-10-10T00:31:49.188Z,22.35
2022-10-10T00:34:15.667Z,22.34
2022-10-10T00:36:42.236Z,22.34
2022-10-10T00:39:08.773Z,22.35
2022-10-10T00:41:35.433Z,22.34
2022-10-10T00:44:08.328Z,22.33
2022-10-10T00:46:35.093Z,22.33
2022-10-10T00:49:03.053Z,22.32
2022-10-10T00:51:29.977Z,22.32
2022-10-10T00:54:02.129Z,22.32
2022-10-10T00:56:31.818Z,22.31
2022-10-10T00:59:02.473Z,22.31
2022-10-10T01:01:29.104Z,22.31
2022-10-10T01:04:00.481Z,22.30
2022-10-10T01:06:27.196Z,22.30
2022-10-10T01:08:56.247Z,22.31
2022-10-10T01:11:52.186Z,22.31
2022-10-10T01:17:02.284Z,22.28
2022-10-10T01:20:06.621Z,22.28
2022-10-10T01:22:48.941Z,22.27
2022-10-10T01:25:37.423Z,22.27
2022-10-10T01:28:22.592Z,22.27
2022-10-10T01:30:49.452Z,22.18
2022-10-10T01:33:42.321Z,22.24
2022-10-10T01:36:13.425Z,22.21
2022-10-10T01:39:06.490Z,22.26
2022-10-10T01:41:40.495Z,22.24
2022-10-10T01:44:07.107Z,22.25
2022-10-10T01:46:33.608Z,22.26
2022-10-10T01:49:01.926Z,22.25
2022-10-10T01:51:49.185Z,22.25
2022-10-10T01:54:18.401Z,22.24
2022-10-10T01:57:11.240Z,22.24
2022-10-10T01:59:53.571Z,22.24
2022-10-10T02:02:34.992Z,22.23
2022-10-10T02:05:08.932Z,22.22
2022-10-10T02:07:58.572Z,22.21
2022-10-10T02:10:30.898Z,22.20
2022-10-10T02:13:01.632Z,22.14
2022-10-10T02:15:34.880Z,22.21
2022-10-10T02:20:24.892Z,22.16
2022-10-10T02:22:51.996Z,22.19
2022-10-10T02:25:26.944Z,22.19
2022-10-10T02:28:08.123Z,22.19
2022-10-10T02:30:38.779Z,22.18
2022-10-10T02:33:08.101Z,22.16
2022-10-10T02:35:41.084Z,22.18
2022-10-10T02:38:11.256Z,22.18
2022-10-10T02:40:39.509Z,22.16
2022-10-10T02:43:07.569Z,22.17
2022-10-10T02:45:35.254Z,22.16
2022-10-10T02:48:02.321Z,22.13
2022-10-10T02:50:30.251Z,22.17
2022-10-10T02:52:57.288Z,22.15
2022-10-10T02:55:23.868Z,22.15
2022-10-10T02:57:50.631Z,22.13
2022-10-10T03:00:17.919Z,22.14
2022-10-10T03:02:46.036Z,22.14
2022-10-10T03:05:13.981Z,22.13
2022-10-10T03:07:40.563Z,22.13
2022-10-10T03:10:07.544Z,22.13
2022-10-10T03:12:37.504Z,22.12
2022-10-10T03:15:10.531Z,22.12
2022-10-10T03:17:38.191Z,22.12
2022-10-10T03:20:05.215Z,22.11
2022-10-10T03:22:31.803Z,22.11
2022-10-10T03:24:58.364Z,22.10
2022-10-10T03:27:25.112Z,22.10
2022-10-10T03:29:52.024Z,22.10
2022-10-10T03:32:18.693Z,22.08
2022-10-10T03:34:45.212Z,22.08
2022-10-10T03:37:11.813Z,22.08
2022-10-10T03:39:38.422Z,22.08
2022-10-10T03:42:05.109Z,22.06
2022-10-10T03:44:31.620Z,22.05
2022-10-10T03:46:58.197Z,22.04
2022-10-10T03:49:24.812Z,21.95
2022-10-10T03:51:51.372Z,22.05
2022-10-10T03:54:17.948Z,22.02
2022-10-10T03:56:44.506Z,22.03
2022-10-10T03:59:11.242Z,22.02
2022-10-10T04:01:38.090Z,22.02
2022-10-10T04:04:05.124Z,22.00
2022-10-10T04:06:32.041Z,22.01
2022-10-10T04:08:58.656Z,21.95
2022-10-10T04:11:25.255Z,22.01
2022-10-10T04:13:51.796Z,22.00
2022-10-10T04:16:18.483Z,22.00
2022-10-10T04:18:44.964Z,21.98
2022-10-10T04:21:12.197Z,21.96
2022-10-10T04:23:40.494Z,21.97
2022-10-10T04:26:07.697Z,21.98
2022-10-10T04:28:34.302Z,21.97
2022-10-10T04:31:01.065Z,21.97
2022-10-10T04:33:27.605Z,21.95
2022-10-10T04:35:54.207Z,21.97
2022-10-10T04:38:21.366Z,21.95
2022-10-10T04:40:50.081Z,21.96
2022-10-10T04:43:17.814Z,21.94
2022-10-10T04:45:44.406Z,21.92
2022-10-10T04:48:12.269Z,21.91
2022-10-10T04:50:39.206Z,21.85
2022-10-10T04:53:06.226Z,21.88
2022-10-10T04:55:32.847Z,21.87
2022-10-10T04:57:59.377Z,21.86
2022-10-10T05:00:26.196Z,21.84
2022-10-10T05:02:53.190Z,21.83
2022-10-10T05:05:19.992Z,21.84
2022-10-10T05:07:48.186Z,21.82
2022-10-10T05:10:17.499Z,21.82
2022-10-10T05:12:44.025Z,21.81
2022-10-10T05:15:10.828Z,21.81
2022-10-10T05:17:37.450Z,21.80
2022-10-10T05:20:05.286Z,21.83
2022-10-10T05:22:31.834Z,21.82
2022-10-10T05:24:59.828Z,21.83
2022-10-10T05:27:27.111Z,21.84
2022-10-10T05:29:53.749Z,21.83
2022-10-10T05:32:20.334Z,21.82
2022-10-10T05:34:47.080Z,21.82
2022-10-10T05:37:14.213Z,21.81
2022-10-10T05:39:40.832Z,21.82
2022-10-10T05:42:07.315Z,21.82
2022-10-10T05:44:34.044Z,21.79
2022-10-10T05:47:00.578Z,21.81
2022-10-10T05:49:27.249Z,21.81
2022-10-10T05:51:53.785Z,21.79
2022-10-10T05:54:21.330Z,21.77
2022-10-10T05:56:48.071Z,21.76
2022-10-10T05:59:14.936Z,21.76
2022-10-10T06:01:41.563Z,21.75
2022-10-10T06:04:08.622Z,21.73
2022-10-10T06:06:35.273Z,21.72
2022-10-10T06:09:01.968Z,21.69
2022-10-10T06:11:29.213Z,21.70
2022-10-10T06:13:57.179Z,21.70
2022-10-10T06:16:25.796Z,21.68
2022-10-10T06:18:53.240Z,21.69
2022-10-10T06:21:20.495Z,21.68
2022-10-10T06:23:47.133Z,21.69
2022-10-10T06:26:13.619Z,21.68
2022-10-10T06:28:40.252Z,21.67
2022-10-10T06:31:08.858Z,21.68
2022-10-10T06:33:37.266Z,21.68
2022-10-10T06:36:06.049Z,21.58
2022-10-10T06:38:35.777Z,21.70
2022-10-10T06:41:03.399Z,21.73
2022-10-10T06:43:31.192Z,21.77
2022-10-10T06:45:57.773Z,21.71
2022-10-10T06:48:24.765Z,21.80
2022-10-10T06:51:09.274Z,21.73
2022-10-10T06:53:36.167Z,21.82
2022-10-10T06:56:03.585Z,21.83
2022-10-10T06:58:30.436Z,21.84
2022-10-10T07:00:59.702Z,21.85
2022-10-10T07:03:28.085Z,21.85
2022-10-10T07:05:56.969Z,21.87
2022-10-10T07:08:24.721Z,21.87
2022-10-10T07:10:51.753Z,21.88
2022-10-10T07:13:18.709Z,21.89
2022-10-10T07:15:45.453Z,21.89
2022-10-10T07:18:12.181Z,21.89
2022-10-10T07:20:40.017Z,21.90
2022-10-10T07:23:06.623Z,21.91
2022-10-10T07:25:33.157Z,21.91
2022-10-10T07:27:59.817Z,21.92
2022-10-10T07:30:26.687Z,21.83
2022-10-10T07:32:55.085Z,21.88
2022-10-10T07:35:22.110Z,21.92
2022-10-10T07:37:49.083Z,21.93
2022-10-10T07:40:15.616Z,21.95
2022-10-10T07:42:42.256Z,21.96
2022-10-10T07:45:12.062Z,21.97
2022-10-10T07:47:39.418Z,21.97
2022-10-10T07:50:07.963Z,21.89
2022-10-10T07:52:38.484Z,21.95
2022-10-10T07:55:05.809Z,21.96
2022-10-10T07:57:35.512Z,22.00
2022-10-10T08:00:07.013Z,22.00
2022-10-10T08:02:42.821Z,22.02
2022-10-10T08:05:09.858Z,22.02
2022-10-10T08:07:36.341Z,22.02
2022-10-10T08:10:03.519Z,22.02
2022-10-10T08:12:30.035Z,22.04
2022-10-10T08:14:56.806Z,22.04
2022-10-10T08:17:23.467Z,22.05
2022-10-10T08:19:50.392Z,22.06
2022-10-10T08:22:16.918Z,22.08
2022-10-10T08:24:43.798Z,22.10
2022-10-10T08:27:10.820Z,22.11
2022-10-10T08:29:37.372Z,22.13
2022-10-10T08:32:03.918Z,22.12
2022-10-10T08:34:30.523Z,22.14
2022-10-10T08:36:57.025Z,22.15
2022-10-10T08:39:23.968Z,22.15
2022-10-10T08:41:55.207Z,22.14
2022-10-10T08:44:51.677Z,22.12
2022-10-10T08:47:43.629Z,22.10
2022-10-10T08:50:25.695Z,22.11
2022-10-10T08:52:55.272Z,22.11
2022-10-10T08:55:30.859Z,22.12
2022-10-10T08:58:17.641Z,22.11
2022-10-10T09:01:04.489Z,22.13
2022-10-10T09:03:43.171Z,22.13
2022-10-10T09:06:40.472Z,22.14
2022-10-10T09:09:25.061Z,22.15
2022-10-10T09:12:09.601Z,22.16
2022-10-10T09:14:57.457Z,22.17
2022-10-10T09:17:29.541Z,22.16
2022-10-10T09:20:11.032Z,22.17
2022-10-10T09:22:49.246Z,22.18
2022-10-10T09:25:23.399Z,22.19
2022-10-10T09:28:18.157Z,22.19
2022-10-10T09:30:52.321Z,22.17
2022-10-10T09:33:37.431Z,22.17
2022-10-10T09:36:11.336Z,22.17
2022-10-10T09:38:43.972Z,22.14
2022-10-10T09:41:43.950Z,22.22
2022-10-10T09:44:13.487Z,22.23
2022-10-10T09:46:40.012Z,22.26
2022-10-10T09:49:07.152Z,22.29
2022-10-10T09:51:34.316Z,22.29
2022-10-10T09:54:01.163Z,22.32
2022-10-10T09:56:31.232Z,22.30
2022-10-10T09:58:58.248Z,22.34
2022-10-10T10:01:26.777Z,22.36
2022-10-10T10:04:27.778Z,22.37
2022-10-10T10:07:05.701Z,22.37
2022-10-10T10:09:32.585Z,22.40
2022-10-10T10:11:59.277Z,22.40
2022-10-10T10:14:30.384Z,22.42
2022-10-10T10:17:07.178Z,22.42
2022-10-10T10:19:37.827Z,22.43
2022-10-10T10:22:04.934Z,22.44
2022-10-10T10:24:36.456Z,22.46
2022-10-10T10:27:18.479Z,22.46
2022-10-10T10:29:51.848Z,22.46
2022-10-10T10:32:21.190Z,22.47
2022-10-10T10:34:56.574Z,22.47
2022-10-10T10:37:31.413Z,22.49
2022-10-10T10:40:04.433Z,22.51
2022-10-10T10:42:49.865Z,22.54
2022-10-10T10:45:26.736Z,22.56
2022-10-10T10:48:16.646Z,22.58
2022-10-10T10:50:52.556Z,22.56
2022-10-10T10:53:28.638Z,22.66
2022-10-10T10:56:12.698Z,22.69
2022-10-10T10:59:35.649Z,22.72
2022-10-10T11:02:26.112Z,22.74
2022-10-10T11:05:39.856Z,22.75
2022-10-10T11:08:13.857Z,22.75
2022-10-10T11:10:40.372Z,22.75
2022-10-10T11:13:36.337Z,22.76
2022-10-10T11:16:47.472Z,22.76
2022-10-10T11:19:28.873Z,22.78
2022-10-10T11:22:04.060Z,22.79
2022-10-10T11:24:42.008Z,22.80
2022-10-10T11:27:15.339Z,22.81
2022-10-10T11:29:52.138Z,22.81
2022-10-10T11:32:26.451Z,22.81
2022-10-10T11:35:07.045Z,22.82
2022-10-10T11:37:40.749Z,22.83
2022-10-10T11:40:28.763Z,22.84
2022-10-10T11:43:02.217Z,22.85
2022-10-10T11:45:35.452Z,22.88
2022-10-10T11:48:05.110Z,22.89
2022-10-10T11:50:37.429Z,22.89
2022-10-10T11:53:28.917Z,22.90
2022-10-10T11:56:03.217Z,22.90
2022-10-10T11:58:45.985Z,22.91
2022-10-10T12:01:22.432Z,22.91
2022-10-10T12:03:54.506Z,22.88
2022-10-10T12:06:33.289Z,22.92
2022-10-10T12:09:08.529Z,22.93
2022-10-10T12:11:42.248Z,22.93
2022-10-10T12:14:13.823Z,22.92
2022-10-10T12:16:40.511Z,22.90
2022-10-10T12:19:16.421Z,22.90
2022-10-10T12:21:58.076Z,22.92
2022-10-10T12:25:06.353Z,22.94
2022-10-10T12:27:44.601Z,22.96
2022-10-10T12:30:25.538Z,22.88
2022-10-10T12:32:54.984Z,22.98
2022-10-10T12:35:30.957Z,22.98
2022-10-10T12:38:16.415Z,22.99
2022-10-10T12:41:12.251Z,22.99
2022-10-10T12:43:50.105Z,22.98
2022-10-10T12:46:43.047Z,22.99
2022-10-10T12:49:24.426Z,22.98
2022-10-10T12:52:03.819Z,22.96
2022-10-10T12:54:37.728Z,22.98
2022-10-10T12:57:25.633Z,22.99
2022-10-10T12:59:52.673Z,22.90
2022-10-10T13:02:26.380Z,22.98
2022-10-10T13:05:02.165Z,22.99
2022-10-10T13:07:29.551Z,22.98
2022-10-10T13:10:05.865Z,22.99
2022-10-10T13:12:32.656Z,23.00
2022-10-10T13:14:59.221Z,23.01
2022-10-10T13:17:37.239Z,23.01
2022-10-10T13:20:05.667Z,23.01
2022-10-10T13:22:35.963Z,23.02
2022-10-10T13:25:05.441Z,23.02
2022-10-10T13:27:35.102Z,23.03
2022-10-10T13:30:02.054Z,23.03
2022-10-10T13:32:32.490Z,23.04
2022-10-10T13:35:02.134Z,23.04
2022-10-10T13:37:29.312Z,23.06
2022-10-10T13:39:56.625Z,23.06
2022-10-10T13:42:28.703Z,23.07
2022-10-10T13:44:57.062Z,23.07
2022-10-10T13:47:46.571Z,22.99
2022-10-10T13:50:24.273Z,23.07
2022-10-10T13:53:11.104Z,23.06
2022-10-10T13:55:38.252Z,23.05
2022-10-10T13:58:08.990Z,23.05
2022-10-10T14:00:37.567Z,23.03
2022-10-10T14:03:18.478Z,23.05
2022-10-10T14:05:46.620Z,23.04
2022-10-10T14:08:20.250Z,23.04
2022-10-10T14:11:09.412Z,23.02
2022-10-10T14:13:38.933Z,23.01
2022-10-10T14:16:17.736Z,23.01
2022-10-10T14:18:45.713Z,22.99
2022-10-10T14:21:13.057Z,22.89
2022-10-10T14:23:40.256Z,22.97
2022-10-10T14:26:18.040Z,22.96
2022-10-10T14:28:45.206Z,22.95
2022-10-10T14:31:12.688Z,22.95
2022-10-10T14:33:39.979Z,22.94
2022-10-10T14:36:06.759Z,22.93
2022-10-10T14:38:33.396Z,22.92
2022-10-10T14:41:01.032Z,22.92
2022-10-10T14:43:28.031Z,22.91
2022-10-10T14:45:54.976Z,22.91
2022-10-10T14:48:21.812Z,22.91
2022-10-10T14:50:49.222Z,22.90
2022-10-10T14:53:16.316Z,22.90
2022-10-10T14:55:43.775Z,22.89
2022-10-10T14:58:28.623Z,22.89
2022-10-10T15:00:55.421Z,22.88
2022-10-10T15:03:22.049Z,22.88
2022-10-10T15:05:49.512Z,22.89
2022-10-10T15:08:17.786Z,22.89
2022-10-10T15:10:46.089Z,22.90
2022-10-10T15:13:13.391Z,22.91
2022-10-10T15:15:40.168Z,22.84
2022-10-10T15:18:20.063Z,22.93
2022-10-10T15:20:53.380Z,22.92
2022-10-10T15:23:20.012Z,22.93
2022-10-10T15:25:46.588Z,22.94
2022-10-10T15:28:13.217Z,22.94
2022-10-10T15:30:43.099Z,22.94
2022-10-10T15:33:09.749Z,22.95
2022-10-10T15:36:03.793Z,22.95
2022-10-10T15:38:22.985Z,22.94
2022-10-10T15:41:00.237Z,22.94
2022-10-10T15:43:28.228Z,22.91
2022-10-10T15:45:56.535Z,22.90
2022-10-10T15:48:23.171Z,22.90
2022-10-10T15:50:51.241Z,22.91
2022-10-10T15:53:18.858Z,22.90
2022-10-10T15:55:47.061Z,22.90
2022-10-10T15:58:14.677Z,22.89
2022-10-10T16:00:43.235Z,22.89
2022-10-10T16:03:10.091Z,22.88
2022-10-10T16:05:38.445Z,22.88
2022-10-10T16:12:30.004Z,22.85
2022-10-10T16:14:56.732Z,22.84
2022-10-10T16:17:23.876Z,22.85
2022-10-10T16:19:50.952Z,22.85
2022-10-10T16:22:17.431Z,22.84
2022-10-10T16:24:53.975Z,22.85
2022-10-10T16:27:32.113Z,22.85
2022-10-10T16:29:58.649Z,22.84
2022-10-10T16:32:25.265Z,22.84
2022-10-10T16:34:51.822Z,22.82
2022-10-10T16:37:18.343Z,22.83
2022-10-10T16:39:44.819Z,22.83
2022-10-10T16:42:11.493Z,22.82
2022-10-10T16:44:38.067Z,22.82
2022-10-10T16:47:04.679Z,22.82
2022-10-10T16:49:32.334Z,22.81
2022-10-10T16:51:59.013Z,22.82
2022-10-10T16:54:25.553Z,22.82
2022-10-10T16:56:52.150Z,22.81
2022-10-10T16:59:18.645Z,22.82
2022-10-10T17:01:45.391Z,22.82
2022-10-10T17:04:15.036Z,22.83
2022-10-10T17:06:41.585Z,22.74
2022-10-10T17:09:09.894Z,22.83
2022-10-10T17:11:36.658Z,22.54
2022-10-10T17:14:03.795Z,22.84
2022-10-10T17:19:17.133Z,22.86
2022-10-10T17:21:43.628Z,22.86
2022-10-10T17:24:10.201Z,22.83
2022-10-10T17:26:37.018Z,22.84
2022-10-10T17:29:03.602Z,22.82
2022-10-10T17:31:30.158Z,22.84
2022-10-10T17:33:57.584Z,22.83
2022-10-10T17:36:26.900Z,22.83
2022-10-10T17:39:00.313Z,22.80
2022-10-10T17:41:28.320Z,22.78
2022-10-10T17:43:55.631Z,22.81
2022-10-10T17:46:41.302Z,22.81
2022-10-10T17:49:10.224Z,22.81
2022-10-10T17:51:38.213Z,22.79
2022-10-10T17:54:06.350Z,22.78
2022-10-10T17:56:33.121Z,22.76
2022-10-10T17:59:01.705Z,22.78
2022-10-10T18:01:30.624Z,22.77
2022-10-10T18:03:57.875Z,22.76
2022-10-10T18:06:24.489Z,22.74
2022-10-10T18:08:52.955Z,22.66
2022-10-10T18:11:25.493Z,22.76
2022-10-10T18:13:52.440Z,22.76
2022-10-10T18:16:22.387Z,22.75
2022-10-10T18:18:52.096Z,22.73
2022-10-10T18:21:23.202Z,22.75
2022-10-10T18:23:50.685Z,22.74
2022-10-10T18:26:20.579Z,22.74
2022-10-10T18:28:48.515Z,22.73
2022-10-10T18:31:18.507Z,22.73
2022-10-10T18:33:45.963Z,22.71
2022-10-10T18:36:18.832Z,22.72
2022-10-10T18:38:46.087Z,22.72
2022-10-10T18:41:18.953Z,22.73
2022-10-10T18:43:46.237Z,22.72
2022-10-10T18:46:20.743Z,22.71
2022-10-10T18:48:53.853Z,22.71
2022-10-10T18:51:26.436Z,22.71
2022-10-10T18:53:55.847Z,22.71
2022-10-10T18:56:24.677Z,22.72
2022-10-10T18:58:56.115Z,22.72
2022-10-10T19:01:25.431Z,22.73
2022-10-10T19:03:54.813Z,22.72
2022-10-10T19:06:23.351Z,22.72
2022-10-10T19:09:00.183Z,22.67
2022-10-10T19:11:29.491Z,22.73
2022-10-10T19:13:58.117Z,22.72
2022-10-10T19:16:25.531Z,22.73
2022-10-10T19:18:56.291Z,22.73
2022-10-10T19:21:25.549Z,22.73
2022-10-10T19:23:53.434Z,22.66
2022-10-10T19:26:20.076Z,22.73
2022-10-10T19:28:46.934Z,22.72
2022-10-10T19:31:16.037Z,22.74
2022-10-10T19:33:43.484Z,22.61
2022-10-10T19:36:12.426Z,22.64
2022-10-10T19:38:41.603Z,22.61
2022-10-10T19:43:22.460Z,22.51
2022-10-10T19:45:51.495Z,22.52
2022-10-10T19:48:20.358Z,22.48
2022-10-10T19:50:47.894Z,22.13
2022-10-10T19:53:17.697Z,22.44
2022-10-10T19:55:57.152Z,22.42
2022-10-10T19:58:23.897Z,22.39
2022-10-10T20:00:50.730Z,22.37
2022-10-10T20:03:20.369Z,22.17
2022-10-10T20:05:47.236Z,22.32
2022-10-10T20:08:14.669Z,22.29
2022-10-10T20:10:42.783Z,22.28
2022-10-10T20:13:14.808Z,22.27
2022-10-10T20:15:42.898Z,22.28
2022-10-10T20:18:09.950Z,22.29
2022-10-10T20:20:41.055Z,22.30
2022-10-10T20:23:08.369Z,22.30
2022-10-10T20:25:39.093Z,22.33
2022-10-10T20:28:06.095Z,22.34
2022-10-10T20:30:33.870Z,22.36
2022-10-10T20:33:00.642Z,22.37
2022-10-10T20:35:27.164Z,22.38
2022-10-10T20:37:53.937Z,22.40
2022-10-10T20:40:20.469Z,22.41
2022-10-10T20:42:47.217Z,22.41
2022-10-10T20:45:14.497Z,22.42
2022-10-10T20:47:41.025Z,22.44
2022-10-10T20:50:07.946Z,22.44
2022-10-10T20:52:34.568Z,22.44
2022-10-10T20:55:01.061Z,22.45
2022-10-10T20:57:30.135Z,22.44
2022-10-10T20:59:56.831Z,22.44
2022-10-10T21:02:23.492Z,22.44
2022-10-10T21:04:50.051Z,22.43
2022-10-10T21:07:16.587Z,22.43
2022-10-10T21:09:43.078Z,22.44
2022-10-10T21:12:09.720Z,22.44
2022-10-10T21:14:36.233Z,22.41
2022-10-10T21:17:02.784Z,22.43
2022-10-10T21:19:29.609Z,22.42
2022-10-10T21:21:56.168Z,22.43
2022-10-10T21:24:22.689Z,22.43
2022-10-10T21:26:50.551Z,22.43
2022-10-10T21:29:17.121Z,22.42
2022-10-10T21:31:43.768Z,22.43
2022-10-10T21:34:13.760Z,22.42
2022-10-10T21:36:40.638Z,22.41
2022-10-10T21:39:07.447Z,22.40
2022-10-10T21:41:34.628Z,22.42
2022-10-10T21:44:01.188Z,22.42
2022-10-10T21:46:35.876Z,22.42
2022-10-10T21:49:09.094Z,22.42
2022-10-10T21:51:38.422Z,22.42
2022-10-10T21:54:06.055Z,22.42
2022-10-10T21:56:33.687Z,22.42
2022-10-10T21:59:01.432Z,22.41
2022-10-10T22:01:32.551Z,22.42
2022-10-10T22:03:59.998Z,22.42
2022-10-10T22:06:26.609Z,22.39
2022-10-10T22:08:57.161Z,22.41
2022-10-10T22:11:25.716Z,22.41
2022-10-10T22:13:52.587Z,22.42
2022-10-10T22:16:19.857Z,22.32
2022-10-10T22:18:46.396Z,22.39
2022-10-10T22:21:15.740Z,22.39
2022-10-10T22:23:43.032Z,22.39
2022-10-10T22:26:11.556Z,22.39
2022-10-10T22:28:38.887Z,22.37
2022-10-10T22:31:10.099Z,22.38
2022-10-10T22:33:36.841Z,22.38
2022-10-10T22:36:04.742Z,22.39
2022-10-10T22:38:31.832Z,22.37
2022-10-10T22:40:59.076Z,22.38
2022-10-10T22:43:27.093Z,22.36
2022-10-10T22:45:54.141Z,22.37
2022-10-10T22:48:21.387Z,22.37
2022-10-10T22:50:48.042Z,22.38
2022-10-10T22:53:14.737Z,22.37
2022-10-10T22:55:41.364Z,22.37
2022-10-10T22:58:07.916Z,22.29
2022-10-10T23:00:34.601Z,22.37
2022-10-10T23:03:01.316Z,22.36
2022-10-10T23:05:27.880Z,22.35
2022-10-10T23:07:54.466Z,22.36
2022-10-10T23:10:20.992Z,22.35
2022-10-10T23:12:47.599Z,22.35
2022-10-10T23:15:14.185Z,22.36
2022-10-10T23:17:40.844Z,22.36
2022-10-10T23:20:08.038Z,22.35
2022-10-10T23:22:34.573Z,22.36
2022-10-10T23:25:01.097Z,22.34
2022-10-10T23:27:27.834Z,22.34
2022-10-10T23:29:54.388Z,22.35
2022-10-10T23:32:22.928Z,22.35
2022-10-10T23:34:49.414Z,22.34
2022-10-10T23:37:15.969Z,22.34
2022-10-10T23:39:42.813Z,22.34
2022-10-10T23:42:09.381Z,22.33
2022-10-10T23:44:35.883Z,22.34
2022-10-10T23:47:02.670Z,22.34
2022-10-10T23:49:29.744Z,22.01
2022-10-10T23:51:56.312Z,22.33
2022-10-10T23:54:22.966Z,22.33
2022-10-10T23:56:49.535Z,22.33
2022-10-10T23:59:16.306Z,22.32
